Strona główna
METAR-TAF:

METAR-TAF

Lotnisko :

Port lotniczy Savannakhet

Savannakhét, Laos

Szerokość geograficzna: 16-33-24N, Długość geograficzna: 104-45-34E, wysokość: 155 m

Aktualna obserwacja pogody

Raport powstał 1 godzina i 48 minut temu, godzina 09:00 UTC
Wiatr 4 kt od południowy zachód
Temperatura 32°C
Wilgotność 63%
Ciśnienie 1005 hPa
Widzialność: 8000 m
Rozproszone chmury na wysokości 1600 ft
Rozproszone chmury na wysokości 10000 ft

METAR: VLSK 180900Z 22004KT 8000 SCT016 SCT100 32/24 Q1005 NOSIG

czas: 17:48 (10:48 UTC)

Prognoza

Raport powstał 5 godziny i 48 minut temu, godzina 05:00 UTC
Prognoza ważna od 18 godzina 06 UTC do 19 godzina 06 UTC
Wiatr 4 kt od południe
Widzialność: 7000 m
Rozproszone chmury na wysokości 2000 ft
Przerywane chmury na wysokości 10000 ft

TAF: VLSK 180500Z 1806/1906 18004KT 7000 SCT020 BKN100

Obserwacja i prognoza pogody dla ponad 4000 lotnisk (raport METAR i TAF).

Dostępne stacje oznaczono żółtymi i czerwonymi punktami na mapie.

Najedź kursorem aby zobaczyć nazwę stacji.

Kliknij aby zobaczyć obserwacje i prognozy pogody.

Aby zmienić mapę: kliknij na zielony przycisk z czarnym krzyżykiem, aby powiększyć; na zielony przycisk z myślnikiem, aby pomniejszyć; na zielone strzałki, aby przejść do map sąsiednich.


METAR-TAF: